Time;durP1;ratioP1;P1;durP2;ratioP2;P2;SDS_P1;SDS_P2;PMS_P1;PMS_P2;Temp;Humidity;BMP_temperature;BMP_pressure;BME280_temperature;BME280_humidity;BME280_pressure;Samples;Min_cycle;Max_cycle;Signal;HPM_P1;HPM_P2
2024/03/03 00:01:05;;;;;;;7.82;5.18;;;11.40;69.50;;;;;;4969882;28;20128;-89
2024/03/03 00:03:31;;;;;;;8.27;5.10;;;11.40;69.50;;;;;;4987280;28;20045;-90
2024/03/03 00:05:57;;;;;;;8.30;4.60;;;11.40;69.50;;;;;;4974619;28;20038;-89
2024/03/03 00:08:24;;;;;;;7.50;5.40;;;11.40;69.60;;;;;;4970944;28;20045;-89
2024/03/03 00:10:50;;;;;;;10.38;4.85;;;11.40;69.60;;;;;;4972509;28;20027;-87
2024/03/03 00:13:16;;;;;;;7.00;4.70;;;11.40;69.50;;;;;;4958390;28;20045;-92
2024/03/03 00:15:42;;;;;;;11.00;5.00;;;11.40;69.60;;;;;;4971977;28;20042;-89
2024/03/03 00:18:08;;;;;;;8.38;4.57;;;11.40;69.70;;;;;;4994012;28;20035;-90
2024/03/03 00:20:34;;;;;;;7.38;4.82;;;11.40;69.50;;;;;;4957366;28;20049;-87
2024/03/03 00:23:00;;;;;;;8.65;4.82;;;11.30;69.40;;;;;;4979497;28;20033;-88
2024/03/03 00:25:26;;;;;;;7.90;5.05;;;11.40;69.50;;;;;;4989692;28;20100;-83
2024/03/03 00:27:52;;;;;;;8.23;5.15;;;11.30;69.30;;;;;;4974422;28;20054;-85
2024/03/03 00:30:18;;;;;;;9.68;4.88;;;11.30;69.40;;;;;;4979688;28;20042;-84
2024/03/03 00:32:44;;;;;;;10.43;5.32;;;11.30;69.40;;;;;;4964846;28;20042;-86
2024/03/03 00:35:11;;;;;;;9.90;4.70;;;11.30;69.40;;;;;;4964307;28;20030;-85
2024/03/03 00:37:38;;;;;;;10.13;4.88;;;11.30;69.30;;;;;;4966528;28;20436;-85
2024/03/03 00:40:06;;;;;;;8.68;5.20;;;11.30;69.50;;;;;;4985490;28;20042;-89
2024/03/03 00:42:32;;;;;;;6.55;4.80;;;11.30;69.30;;;;;;4977611;28;20042;-83
2024/03/03 00:44:58;;;;;;;12.10;4.93;;;11.30;69.20;;;;;;4966972;28;20049;-84
2024/03/03 00:47:24;;;;;;;6.70;4.60;;;11.30;69.40;;;;;;4963614;28;20436;-85
2024/03/03 00:49:50;;;;;;;6.35;4.97;;;11.30;69.40;;;;;;4979870;28;20034;-85
2024/03/03 00:52:16;;;;;;;8.48;4.90;;;11.30;69.30;;;;;;4964097;28;20042;-84
2024/03/03 00:54:42;;;;;;;12.68;4.80;;;11.30;69.20;;;;;;4962643;28;20082;-83
2024/03/03 00:57:08;;;;;;;7.32;4.85;;;11.30;69.10;;;;;;4979881;28;20046;-88
2024/03/03 00:59:34;;;;;;;5.65;4.47;;;11.30;69.10;;;;;;4976384;28;20035;-88
2024/03/03 01:02:00;;;;;;;8.98;4.68;;;11.30;69.00;;;;;;4961553;28;20025;-86
2024/03/03 01:04:26;;;;;;;8.68;5.43;;;11.20;68.90;;;;;;4959130;28;20140;-83
2024/03/03 01:06:52;;;;;;;8.20;4.60;;;11.30;68.80;;;;;;4975104;28;20045;-86
2024/03/03 01:09:18;;;;;;;6.22;4.72;;;11.20;68.80;;;;;;4971057;28;20156;-85
2024/03/03 01:11:51;;;;;;;7.13;5.00;;;11.30;68.80;;;;;;4973792;28;20129;-84
2024/03/03 01:14:17;;;;;;;7.47;4.78;;;11.20;68.50;;;;;;4974239;28;20078;-86
2024/03/03 01:16:43;;;;;;;8.52;4.40;;;11.20;68.60;;;;;;4972415;28;20026;-89
2024/03/03 01:19:10;;;;;;;6.07;4.65;;;11.20;68.50;;;;;;4994549;28;20047;-86
2024/03/03 01:21:39;;;;;;;9.88;5.07;;;11.20;68.50;;;;;;4954700;28;20058;-90
2024/03/03 01:24:06;;;;;;;8.20;4.68;;;11.20;68.50;;;;;;4990089;28;20116;-86
2024/03/03 01:26:32;;;;;;;7.55;4.80;;;11.20;68.30;;;;;;4991509;28;20031;-90
2024/03/03 01:28:58;;;;;;;7.15;4.45;;;11.20;68.20;;;;;;4960793;28;20050;-89
2024/03/03 01:31:24;;;;;;;8.07;5.05;;;11.20;68.20;;;;;;4974207;28;20038;-86
2024/03/03 01:33:50;;;;;;;10.20;4.75;;;11.20;68.20;;;;;;4973091;28;20041;-87
2024/03/03 01:36:16;;;;;;;8.63;5.15;;;11.20;68.30;;;;;;4971571;28;20080;-86
2024/03/03 01:38:42;;;;;;;6.97;4.80;;;11.20;68.90;;;;;;4991110;28;20037;-87
2024/03/03 01:41:08;;;;;;;8.77;5.55;;;11.20;68.20;;;;;;4975907;28;20106;-87
2024/03/03 01:43:35;;;;;;;11.35;4.88;;;11.10;68.30;;;;;;4942976;28;20060;-87
2024/03/03 01:46:00;;;;;;;11.20;5.35;;;11.10;68.20;;;;;;4960860;28;20049;-87
2024/03/03 01:48:27;;;;;;;10.60;5.30;;;11.10;68.20;;;;;;4953091;28;20046;-82
2024/03/03 01:50:55;;;;;;;7.47;5.03;;;11.10;68.20;;;;;;4961158;28;20125;-83
2024/03/03 01:53:23;;;;;;;10.77;5.50;;;11.10;68.00;;;;;;4974994;28;20172;-84
2024/03/03 01:55:49;;;;;;;8.27;5.28;;;11.10;68.10;;;;;;4974838;28;20023;-84
2024/03/03 01:58:16;;;;;;;10.35;5.38;;;11.10;68.00;;;;;;4970303;28;20057;-84
2024/03/03 02:00:45;;;;;;;7.60;5.20;;;11.10;68.00;;;;;;4972341;28;20179;-85
2024/03/03 02:03:11;;;;;;;9.88;5.53;;;11.10;67.90;;;;;;4994299;28;20034;-86
2024/03/03 02:05:38;;;;;;;8.35;5.32;;;11.10;67.90;;;;;;4959901;28;20042;-87
2024/03/03 02:08:06;;;;;;;8.02;5.15;;;11.10;67.80;;;;;;4959211;28;20030;-85
2024/03/03 02:10:33;;;;;;;8.68;4.78;;;11.10;67.60;;;;;;4971428;28;20034;-84
2024/03/03 02:12:59;;;;;;;5.95;5.07;;;11.10;67.70;;;;;;4973791;28;20046;-84
2024/03/03 02:15:25;;;;;;;7.45;4.97;;;11.10;67.70;;;;;;4971025;28;20128;-85
2024/03/03 02:17:54;;;;;;;8.80;5.40;;;11.10;67.80;;;;;;4970254;28;20050;-88
2024/03/03 02:20:20;;;;;;;9.60;5.35;;;11.00;67.60;;;;;;4969413;28;20060;-83
2024/03/03 02:22:46;;;;;;;8.70;5.30;;;11.10;67.70;;;;;;4987990;28;20034;-82
2024/03/03 02:25:12;;;;;;;7.20;5.18;;;11.00;67.60;;;;;;4968873;28;20038;-84
2024/03/03 02:27:39;;;;;;;8.68;5.68;;;11.00;67.40;;;;;;4958372;28;20031;-87
2024/03/03 02:30:06;;;;;;;7.78;4.95;;;11.00;67.50;;;;;;4975269;28;20034;-85
2024/03/03 02:32:32;;;;;;;8.15;5.03;;;11.00;67.40;;;;;;4987162;28;20520;-85
2024/03/03 02:34:58;;;;;;;7.53;5.38;;;11.00;67.60;;;;;;4970764;28;20034;-85
2024/03/03 02:37:24;;;;;;;9.95;5.45;;;11.00;67.40;;;;;;4969097;28;20404;-84
2024/03/03 02:39:50;;;;;;;7.45;5.25;;;11.00;67.60;;;;;;4972983;28;20039;-83
2024/03/03 02:42:16;;;;;;;12.15;6.65;;;11.00;67.60;;;;;;4958362;28;20097;-87
2024/03/03 02:44:42;;;;;;;7.72;5.28;;;11.00;67.60;;;;;;4989934;28;20038;-85
2024/03/03 02:47:08;;;;;;;10.02;5.35;;;11.00;67.60;;;;;;4984236;28;20477;-85
2024/03/03 02:49:34;;;;;;;8.13;5.68;;;11.00;67.70;;;;;;4976569;28;20034;-85
2024/03/03 02:52:00;;;;;;;7.22;5.60;;;10.90;67.60;;;;;;4971579;28;20033;-87
2024/03/03 02:54:28;;;;;;;10.00;5.40;;;10.90;67.50;;;;;;4987488;28;20041;-86
2024/03/03 02:56:54;;;;;;;10.52;5.40;;;10.90;67.40;;;;;;4969126;28;20042;-87
2024/03/03 02:59:20;;;;;;;10.75;5.72;;;10.90;67.40;;;;;;4987205;28;20034;-89
2024/03/03 03:01:46;;;;;;;9.38;5.28;;;10.90;67.40;;;;;;4960808;28;21280;-87
2024/03/03 03:04:12;;;;;;;8.57;4.70;;;10.90;67.30;;;;;;4959058;28;20059;-91
2024/03/03 03:06:38;;;;;;;8.07;4.90;;;10.90;67.20;;;;;;4969752;28;20031;-85
2024/03/03 03:09:04;;;;;;;8.55;5.22;;;10.90;67.20;;;;;;4969311;28;20056;-90
2024/03/03 03:11:30;;;;;;;11.73;5.30;;;10.90;67.20;;;;;;4985786;28;20645;-88
2024/03/03 03:13:56;;;;;;;8.93;5.78;;;10.90;67.10;;;;;;4975418;28;20029;-88
2024/03/03 03:16:22;;;;;;;8.38;5.68;;;10.90;67.00;;;;;;4956450;28;20760;-85
2024/03/03 03:18:48;;;;;;;8.50;5.47;;;10.90;67.20;;;;;;4986736;28;20034;-84
2024/03/03 03:21:15;;;;;;;9.20;5.82;;;10.90;67.10;;;;;;4954359;28;20035;-88
2024/03/03 03:23:41;;;;;;;10.82;5.72;;;10.90;67.10;;;;;;4974881;28;20121;-85
2024/03/03 03:26:07;;;;;;;10.73;5.72;;;10.90;67.10;;;;;;4986015;28;20040;-86
2024/03/03 03:28:33;;;;;;;11.48;6.63;;;10.90;67.10;;;;;;4987079;28;20039;-83
2024/03/03 03:30:59;;;;;;;9.45;5.63;;;10.90;67.10;;;;;;4987485;28;20041;-83
2024/03/03 03:33:25;;;;;;;7.97;5.38;;;10.90;67.00;;;;;;4958457;28;20034;-84
2024/03/03 03:35:51;;;;;;;8.57;5.35;;;10.80;66.80;;;;;;4974254;28;20405;-84
2024/03/03 03:38:17;;;;;;;7.55;5.30;;;10.80;66.90;;;;;;4960587;28;20030;-89
2024/03/03 03:40:43;;;;;;;10.48;5.82;;;10.80;66.80;;;;;;4941021;28;20046;-82
2024/03/03 03:43:09;;;;;;;7.65;5.50;;;10.80;66.80;;;;;;4994524;28;20040;-89
2024/03/03 03:45:35;;;;;;;10.00;5.80;;;10.80;66.80;;;;;;4974808;28;20070;-90
2024/03/03 03:48:01;;;;;;;9.65;5.55;;;10.80;66.80;;;;;;4960847;28;20069;-89
2024/03/03 03:50:27;;;;;;;9.95;5.70;;;10.80;66.80;;;;;;4970563;28;20121;-89
2024/03/03 03:52:53;;;;;;;8.38;5.50;;;10.80;66.80;;;;;;4972439;28;20089;-87
2024/03/03 03:55:19;;;;;;;10.30;5.07;;;10.80;66.90;;;;;;4975043;28;20038;-90
2024/03/03 03:57:45;;;;;;;10.07;5.35;;;10.80;66.70;;;;;;4958836;28;20404;-87
2024/03/03 04:00:12;;;;;;;8.05;5.20;;;10.80;66.70;;;;;;4973482;28;20030;-87
2024/03/03 04:02:41;;;;;;;10.23;5.70;;;10.80;66.60;;;;;;4973826;28;20045;-84
2024/03/03 04:05:07;;;;;;;8.90;5.18;;;10.80;66.70;;;;;;4957489;28;20034;-84
2024/03/03 04:07:34;;;;;;;9.02;5.95;;;10.80;66.70;;;;;;4973167;28;20042;-88
2024/03/03 04:10:00;;;;;;;7.03;4.93;;;10.80;66.80;;;;;;4968450;28;20093;-87
2024/03/03 04:12:26;;;;;;;9.15;5.70;;;10.80;66.90;;;;;;4974895;28;20043;-84
2024/03/03 04:14:52;;;;;;;8.75;5.38;;;10.80;66.60;;;;;;4957105;28;20034;-84
2024/03/03 04:17:18;;;;;;;9.38;5.75;;;10.70;66.60;;;;;;4986241;28;20038;-85
2024/03/03 04:19:44;;;;;;;9.32;5.53;;;10.70;66.50;;;;;;4998570;28;20074;-88
2024/03/03 04:22:10;;;;;;;9.02;5.75;;;10.70;66.50;;;;;;4984332;28;20035;-82
2024/03/03 04:24:38;;;;;;;8.90;5.80;;;10.70;66.50;;;;;;4981002;28;20049;-86
2024/03/03 04:27:04;;;;;;;7.78;5.60;;;10.70;66.50;;;;;;4958358;28;20039;-87
2024/03/03 04:29:30;;;;;;;6.57;5.00;;;10.70;66.40;;;;;;4983610;28;20112;-85
2024/03/03 04:31:56;;;;;;;10.20;6.15;;;10.70;66.30;;;;;;4969446;28;20034;-85
2024/03/03 04:34:25;;;;;;;10.60;5.63;;;10.70;66.30;;;;;;4973543;28;20065;-83
2024/03/03 04:36:51;;;;;;;8.85;5.82;;;10.70;66.20;;;;;;4970890;28;20401;-85
2024/03/03 04:39:17;;;;;;;10.15;5.80;;;10.70;66.10;;;;;;4960052;28;20037;-86
2024/03/03 04:41:43;;;;;;;11.48;5.68;;;10.70;66.10;;;;;;4972585;28;20509;-84
2024/03/03 04:44:09;;;;;;;9.88;5.85;;;10.70;66.00;;;;;;4968999;28;20043;-87
2024/03/03 04:46:35;;;;;;;7.50;4.95;;;10.70;66.10;;;;;;4974054;28;20038;-86
2024/03/03 04:49:01;;;;;;;10.40;5.68;;;10.70;66.10;;;;;;4957602;28;20390;-84
2024/03/03 04:51:27;;;;;;;8.82;5.80;;;10.70;66.20;;;;;;4989380;28;20457;-84
2024/03/03 04:53:54;;;;;;;9.45;5.55;;;10.70;66.10;;;;;;4959202;28;20031;-86
2024/03/03 04:56:20;;;;;;;9.57;5.70;;;10.70;66.00;;;;;;4970270;28;20038;-85
2024/03/03 04:58:46;;;;;;;8.73;5.25;;;10.70;66.10;;;;;;4970227;28;20030;-87
2024/03/03 05:01:12;;;;;;;12.77;5.80;;;10.70;66.10;;;;;;4969549;28;20049;-89
2024/03/03 05:03:38;;;;;;;8.15;5.65;;;10.70;66.00;;;;;;4969597;28;20030;-89
2024/03/03 05:06:04;;;;;;;12.80;5.75;;;10.70;66.00;;;;;;4970262;28;20402;-86
2024/03/03 05:08:30;;;;;;;9.63;5.60;;;10.70;65.90;;;;;;4971754;28;20049;-83
2024/03/03 05:10:56;;;;;;;12.38;5.43;;;10.70;65.80;;;;;;4960457;28;20034;-84
2024/03/03 05:13:22;;;;;;;9.98;5.18;;;10.70;65.70;;;;;;4959689;28;20042;-83
2024/03/03 05:15:48;;;;;;;10.50;5.78;;;10.70;65.70;;;;;;4973711;28;20041;-86
2024/03/03 05:18:14;;;;;;;8.88;5.25;;;10.70;65.70;;;;;;4979253;28;20065;-85
2024/03/03 05:20:40;;;;;;;8.45;5.05;;;10.70;65.50;;;;;;4973302;28;20583;-92
2024/03/03 05:23:06;;;;;;;8.98;5.90;;;10.70;65.70;;;;;;4988737;28;21280;-86
2024/03/03 05:25:32;;;;;;;9.35;5.90;;;10.80;65.70;;;;;;4987609;28;20533;-86
2024/03/03 05:27:59;;;;;;;7.38;5.63;;;10.80;65.70;;;;;;4986608;28;20030;-83
2024/03/03 05:30:43;;;;;;;6.60;5.50;;;10.80;65.70;;;;;;4995659;28;20030;-85
2024/03/03 05:33:11;;;;;;;13.77;6.43;;;10.80;65.60;;;;;;4978245;28;20085;-88
2024/03/03 05:35:41;;;;;;;9.13;5.85;;;10.90;65.50;;;;;;4988731;28;20030;-87
2024/03/03 05:38:07;;;;;;;9.73;5.68;;;10.90;65.30;;;;;;4972647;28;20066;-86
2024/03/03 05:40:33;;;;;;;9.95;5.80;;;11.00;65.20;;;;;;4959830;28;20041;-88
2024/03/03 05:43:00;;;;;;;9.50;5.60;;;11.10;65.00;;;;;;4978184;28;20031;-88
2024/03/03 05:45:26;;;;;;;9.57;5.07;;;11.20;64.80;;;;;;4960413;28;20042;-88
2024/03/03 05:47:54;;;;;;;10.20;5.32;;;11.30;65.20;;;;;;4966096;28;20042;-91
2024/03/03 05:50:20;;;;;;;8.80;5.20;;;11.40;65.40;;;;;;4975866;28;20042;-92
2024/03/03 05:52:46;;;;;;;8.02;4.90;;;11.40;65.70;;;;;;4979015;28;20034;-93
2024/03/03 05:55:12;;;;;;;7.35;4.88;;;11.50;66.00;;;;;;4987448;28;20082;-86
2024/03/03 05:57:38;;;;;;;6.82;4.95;;;11.60;66.10;;;;;;4978098;28;20034;-91
2024/03/03 06:00:05;;;;;;;11.60;5.13;;;11.70;66.10;;;;;;4958669;28;20030;-89
2024/03/03 06:02:36;;;;;;;8.52;5.22;;;11.80;66.00;;;;;;4973219;28;20045;-91
2024/03/03 06:05:03;;;;;;;10.48;5.60;;;11.90;65.90;;;;;;4981740;28;20041;-83
2024/03/03 06:07:29;;;;;;;10.63;5.38;;;12.00;65.80;;;;;;5003703;28;20088;-91
2024/03/03 06:09:55;;;;;;;6.75;4.80;;;12.10;65.70;;;;;;4979742;28;20549;-95
2024/03/03 06:12:21;;;;;;;9.93;5.03;;;12.10;65.60;;;;;;4964268;28;20061;-90
2024/03/03 06:14:47;;;;;;;6.78;5.03;;;12.20;65.40;;;;;;4961316;28;20034;-91
2024/03/03 06:17:14;;;;;;;5.68;4.78;;;12.30;65.20;;;;;;4961200;28;20057;-92
2024/03/03 06:19:40;;;;;;;6.90;4.97;;;12.40;65.10;;;;;;4961408;28;20531;-92
2024/03/03 06:22:08;;;;;;;6.55;4.80;;;12.50;65.00;;;;;;4976359;28;20524;-88
2024/03/03 06:24:35;;;;;;;8.02;4.80;;;12.60;64.90;;;;;;4976625;28;20062;-84
2024/03/03 06:27:01;;;;;;;8.15;5.03;;;12.70;64.90;;;;;;4975233;28;20084;-84
2024/03/03 06:29:27;;;;;;;6.93;4.68;;;12.80;64.90;;;;;;4961219;28;20025;-83
2024/03/03 06:31:53;;;;;;;8.73;4.55;;;12.90;64.70;;;;;;4991906;28;20031;-85
2024/03/03 06:34:19;;;;;;;6.05;4.18;;;12.90;64.60;;;;;;4961355;28;20050;-84
2024/03/03 06:36:45;;;;;;;10.77;4.32;;;13.10;64.50;;;;;;4974920;28;20496;-84
2024/03/03 06:39:12;;;;;;;6.53;4.80;;;13.10;64.30;;;;;;4978517;28;20026;-84
2024/03/03 06:41:38;;;;;;;6.40;4.50;;;13.20;64.20;;;;;;4960413;28;20026;-86
2024/03/03 06:44:05;;;;;;;6.03;4.38;;;13.30;64.10;;;;;;4977200;28;20275;-88
2024/03/03 06:46:32;;;;;;;6.80;4.80;;;13.40;64.00;;;;;;4957619;28;20069;-85
2024/03/03 06:48:58;;;;;;;7.00;4.50;;;13.50;64.00;;;;;;4958128;28;20119;-87
2024/03/03 06:51:24;;;;;;;7.63;4.60;;;13.60;64.10;;;;;;4957181;28;20124;-91
2024/03/03 06:53:50;;;;;;;7.28;4.57;;;13.60;64.00;;;;;;4964537;28;20043;-95
2024/03/03 06:56:17;;;;;;;8.30;4.40;;;13.70;64.10;;;;;;4967010;28;20094;-88
2024/03/03 06:58:45;;;;;;;7.00;4.22;;;13.80;64.00;;;;;;4979151;28;20076;-88
2024/03/03 07:01:11;;;;;;;7.20;4.38;;;13.90;64.10;;;;;;4958882;28;20065;-91
2024/03/03 07:06:22;;;;;;;5.68;4.65;;;14.00;63.60;;;;;;4970249;28;20606;-89
2024/03/03 07:08:48;;;;;;;6.55;4.70;;;14.10;63.50;;;;;;4992871;28;20038;-87
2024/03/03 07:11:14;;;;;;;6.90;4.40;;;14.20;63.40;;;;;;4957027;28;20035;-86
2024/03/03 07:13:40;;;;;;;5.35;4.07;;;14.30;63.30;;;;;;4976662;28;20034;-89
2024/03/03 07:16:07;;;;;;;6.00;4.40;;;14.40;63.30;;;;;;4968125;28;20049;-89
2024/03/03 07:18:33;;;;;;;7.10;4.45;;;14.50;63.30;;;;;;4962166;28;20420;-85
2024/03/03 07:20:59;;;;;;;5.78;4.00;;;14.50;63.20;;;;;;4959817;28;20038;-87
2024/03/03 07:23:25;;;;;;;7.60;4.18;;;14.60;63.10;;;;;;4959656;28;20034;-84
2024/03/03 07:25:51;;;;;;;6.20;3.75;;;14.70;63.20;;;;;;4960760;28;20085;-89
2024/03/03 07:28:17;;;;;;;5.22;4.32;;;14.70;63.20;;;;;;4971124;28;20034;-89
2024/03/03 07:30:43;;;;;;;6.22;4.35;;;14.70;63.30;;;;;;4959485;28;20039;-89
2024/03/03 07:33:09;;;;;;;7.78;4.93;;;14.80;63.40;;;;;;4961069;28;20038;-90
2024/03/03 07:35:35;;;;;;;5.05;4.28;;;14.80;63.50;;;;;;4960385;28;20034;-91
2024/03/03 07:38:01;;;;;;;6.90;3.92;;;14.90;63.70;;;;;;4977677;28;20121;-89
2024/03/03 07:40:33;;;;;;;8.38;4.18;;;14.90;63.60;;;;;;4960429;28;20041;-90
2024/03/03 07:42:59;;;;;;;5.47;4.07;;;15.00;63.30;;;;;;4958857;28;20038;-90
2024/03/03 07:45:25;;;;;;;6.43;4.60;;;15.10;63.30;;;;;;4980002;28;20516;-88
2024/03/03 07:47:51;;;;;;;4.68;3.95;;;15.10;63.30;;;;;;4978029;28;20517;-92
2024/03/03 07:50:17;;;;;;;6.05;3.88;;;15.10;63.20;;;;;;4959725;28;20133;-87
2024/03/03 07:52:43;;;;;;;6.40;4.18;;;15.20;63.30;;;;;;4960714;28;20129;-89
2024/03/03 07:55:09;;;;;;;6.20;3.88;;;15.20;63.60;;;;;;4959798;28;20659;-90
2024/03/03 07:57:35;;;;;;;6.57;3.85;;;15.30;63.70;;;;;;4960797;28;20039;-92
2024/03/03 08:00:01;;;;;;;5.97;3.90;;;15.30;63.70;;;;;;4975885;28;20057;-91
2024/03/03 08:02:27;;;;;;;6.22;3.80;;;15.40;63.80;;;;;;4945384;28;20035;-91
2024/03/03 08:04:56;;;;;;;6.10;3.85;;;15.40;63.80;;;;;;4976671;28;20469;-90
2024/03/03 08:07:22;;;;;;;6.78;3.55;;;15.50;63.70;;;;;;4981151;28;20113;-91
2024/03/03 08:09:48;;;;;;;7.43;4.20;;;15.50;63.60;;;;;;4960525;28;20042;-93
2024/03/03 08:12:14;;;;;;;5.05;4.25;;;15.60;63.60;;;;;;4975646;28;20130;-88
2024/03/03 08:14:40;;;;;;;6.43;3.83;;;15.60;63.50;;;;;;4992279;28;20425;-86
2024/03/03 08:17:06;;;;;;;7.38;3.80;;;15.70;63.50;;;;;;4964713;28;20032;-92
2024/03/03 08:19:32;;;;;;;5.75;3.80;;;15.70;63.30;;;;;;4974025;28;20039;-90
2024/03/03 08:21:59;;;;;;;5.25;4.07;;;15.70;63.00;;;;;;4971652;28;20030;-87
2024/03/03 08:24:24;;;;;;;6.40;4.25;;;15.80;63.00;;;;;;4984211;28;20524;-85
2024/03/03 08:26:50;;;;;;;6.05;3.90;;;15.80;63.00;;;;;;4983914;28;20036;-85
2024/03/03 08:29:17;;;;;;;6.22;3.83;;;15.80;63.00;;;;;;4972831;28;20026;-85
2024/03/03 08:31:44;;;;;;;11.27;3.83;;;15.80;63.00;;;;;;4975200;28;20030;-96
2024/03/03 08:34:11;;;;;;;6.15;4.00;;;15.90;63.10;;;;;;4952616;28;20564;-86
2024/03/03 08:36:40;;;;;;;4.88;4.18;;;15.80;63.00;;;;;;4984574;28;20057;-85
2024/03/03 08:39:07;;;;;;;5.93;3.70;;;15.80;63.10;;;;;;4967852;28;20046;-86
2024/03/03 08:41:37;;;;;;;6.22;4.13;;;15.80;63.00;;;;;;4968126;28;20045;-84
2024/03/03 08:44:03;;;;;;;7.50;3.65;;;15.90;62.90;;;;;;4990003;28;20088;-85
2024/03/03 08:46:29;;;;;;;5.55;4.20;;;15.90;62.80;;;;;;4972172;28;20105;-86
2024/03/03 08:48:55;;;;;;;5.10;3.85;;;15.90;62.80;;;;;;4963169;28;20038;-86
2024/03/03 08:51:21;;;;;;;4.43;3.80;;;15.90;62.60;;;;;;4989129;28;20049;-86
2024/03/03 08:53:47;;;;;;;4.95;3.67;;;15.90;62.50;;;;;;4963674;28;20531;-85
2024/03/03 08:56:13;;;;;;;5.03;3.85;;;15.90;63.00;;;;;;4989734;28;20078;-84
2024/03/03 08:58:40;;;;;;;4.95;3.75;;;15.90;62.40;;;;;;4972439;28;20037;-86
2024/03/03 09:01:06;;;;;;;6.13;4.13;;;15.90;62.40;;;;;;4974262;28;20053;-85
2024/03/03 09:03:34;;;;;;;6.10;3.70;;;15.80;62.20;;;;;;4961089;28;20034;-85
2024/03/03 09:06:00;;;;;;;4.82;3.88;;;15.80;62.10;;;;;;4959780;28;20134;-86
2024/03/03 09:08:29;;;;;;;7.80;3.35;;;15.80;61.80;;;;;;4959057;28;20437;-84
2024/03/03 09:11:01;;;;;;;5.82;3.72;;;15.80;62.10;;;;;;4991361;28;20064;-86
2024/03/03 09:13:27;;;;;;;5.00;3.25;;;15.80;62.20;;;;;;4970117;28;20119;-86
2024/03/03 09:15:53;;;;;;;4.45;3.05;;;15.80;62.20;;;;;;4975121;28;20038;-85
2024/03/03 09:18:19;;;;;;;4.32;3.15;;;15.70;62.00;;;;;;4976762;28;20049;-85
2024/03/03 09:20:45;;;;;;;4.60;3.58;;;15.70;61.90;;;;;;4955739;28;20467;-84
2024/03/03 09:23:11;;;;;;;4.13;3.40;;;15.70;61.70;;;;;;4969444;28;20184;-86
2024/03/03 09:25:37;;;;;;;5.15;3.28;;;15.70;61.70;;;;;;4954518;28;20091;-87
2024/03/03 09:28:03;;;;;;;3.50;2.92;;;15.70;61.60;;;;;;4954897;28;20043;-86
2024/03/03 09:30:29;;;;;;;3.95;3.00;;;15.70;61.50;;;;;;4969080;28;20030;-86
2024/03/03 09:32:55;;;;;;;3.42;2.70;;;15.60;61.40;;;;;;4988375;28;20038;-86
2024/03/03 09:35:22;;;;;;;5.15;3.50;;;15.60;61.40;;;;;;4970764;28;20038;-86
2024/03/03 09:37:49;;;;;;;3.67;2.90;;;15.60;61.30;;;;;;4973933;28;20037;-87
2024/03/03 09:40:16;;;;;;;3.30;3.00;;;15.60;61.20;;;;;;4952760;28;20053;-86
2024/03/03 09:42:46;;;;;;;3.42;2.83;;;15.50;61.30;;;;;;4985818;28;20050;-86
2024/03/03 09:45:14;;;;;;;4.15;2.53;;;15.50;61.40;;;;;;4969084;28;20039;-85
2024/03/03 09:47:41;;;;;;;2.75;2.42;;;15.50;61.50;;;;;;4993424;28;20116;-86
2024/03/03 09:50:14;;;;;;;4.65;2.90;;;15.50;61.40;;;;;;4977907;28;20034;-85
2024/03/03 09:52:42;;;;;;;3.35;2.40;;;15.50;61.20;;;;;;4976031;28;20105;-85
2024/03/03 09:55:11;;;;;;;3.28;2.30;;;15.40;61.10;;;;;;4958138;28;20057;-86
2024/03/03 09:57:38;;;;;;;5.03;2.83;;;15.40;61.20;;;;;;4972739;28;20041;-86
2024/03/03 10:00:07;;;;;;;3.17;2.80;;;15.40;61.00;;;;;;4958414;28;20046;-87
2024/03/03 10:02:41;;;;;;;3.45;2.55;;;15.40;61.10;;;;;;4985466;28;20042;-86
2024/03/03 10:05:07;;;;;;;3.78;2.67;;;15.40;61.00;;;;;;4954209;28;20091;-86
2024/03/03 10:07:46;;;;;;;4.28;2.78;;;15.30;60.90;;;;;;4954895;28;20493;-85
2024/03/03 10:10:17;;;;;;;4.63;3.13;;;15.30;60.90;;;;;;4981809;28;21067;-85
2024/03/03 10:12:46;;;;;;;4.00;2.88;;;15.30;60.90;;;;;;4982915;28;20041;-85
2024/03/03 10:15:12;;;;;;;3.67;2.58;;;15.30;60.70;;;;;;4954331;28;20473;-85
2024/03/03 10:17:39;;;;;;;4.45;2.53;;;15.30;60.90;;;;;;4983459;28;20093;-85
2024/03/03 10:20:26;;;;;;;3.08;2.50;;;15.30;60.90;;;;;;4954585;28;20702;-85
2024/03/03 10:22:52;;;;;;;2.63;2.25;;;15.30;60.90;;;;;;4966485;28;20490;-85
2024/03/03 10:25:18;;;;;;;2.38;2.17;;;15.20;60.90;;;;;;4982651;28;20046;-86
2024/03/03 10:27:46;;;;;;;3.08;2.50;;;15.20;60.90;;;;;;4954092;28;20498;-84
2024/03/03 10:30:14;;;;;;;3.08;2.25;;;15.20;60.90;;;;;;4968558;28;20037;-85
2024/03/03 10:32:42;;;;;;;4.47;2.42;;;15.20;60.70;;;;;;4986764;28;20061;-86
2024/03/03 10:35:13;;;;;;;4.13;2.60;;;15.20;60.70;;;;;;4972388;28;20034;-86
2024/03/03 10:37:52;;;;;;;3.88;2.60;;;15.10;60.50;;;;;;4953704;28;20042;-89
2024/03/03 10:40:37;;;;;;;4.13;2.40;;;15.10;60.20;;;;;;4971554;28;20030;-89
2024/03/03 10:43:04;;;;;;;2.78;2.47;;;15.10;60.00;;;;;;4986532;28;20045;-89
2024/03/03 10:45:30;;;;;;;3.95;2.33;;;15.10;59.80;;;;;;4969395;28;20037;-89
2024/03/03 10:47:58;;;;;;;4.30;2.22;;;15.10;59.80;;;;;;4956345;28;20058;-86
2024/03/03 10:50:25;;;;;;;2.95;2.20;;;15.10;59.90;;;;;;4967341;28;20521;-87
2024/03/03 10:52:52;;;;;;;2.78;2.22;;;15.10;59.90;;;;;;4953033;28;20393;-90
2024/03/03 10:55:19;;;;;;;2.63;2.25;;;15.10;60.00;;;;;;4984323;28;20049;-84
2024/03/03 10:57:49;;;;;;;3.85;2.42;;;15.00;60.00;;;;;;4969536;28;20125;-87
2024/03/03 11:00:22;;;;;;;4.57;2.22;;;15.00;60.00;;;;;;4969492;28;20137;-88
2024/03/03 11:02:54;;;;;;;2.03;1.83;;;15.00;59.90;;;;;;4967230;28;20068;-85
2024/03/03 11:05:20;;;;;;;4.50;2.40;;;15.00;59.80;;;;;;4968974;28;20041;-86
2024/03/03 11:08:27;;;;;;;;;;;;;;;;;;;;;
2024/03/03 11:11:12;;;;;;;2.53;1.98;;;15.00;59.50;;;;;;4974335;28;20136;-84
2024/03/03 11:13:59;;;;;;;3.53;2.17;;;15.00;59.50;;;;;;4970955;28;20125;-83
2024/03/03 11:16:32;;;;;;;3.95;1.75;;;15.00;59.40;;;;;;4964793;28;20038;-84
2024/03/03 11:19:18;;;;;;;2.90;2.13;;;15.00;59.40;;;;;;4967828;28;20392;-82
2024/03/03 11:21:52;;;;;;;2.78;1.80;;;15.00;59.60;;;;;;4966565;28;21374;-82
2024/03/03 11:24:31;;;;;;;2.90;1.90;;;14.90;59.60;;;;;;4953008;28;20600;-83
2024/03/03 11:27:17;;;;;;;2.78;1.70;;;14.90;60.40;;;;;;4964461;28;20092;-82
2024/03/03 11:29:46;;;;;;;4.00;1.65;;;14.90;59.90;;;;;;4968224;28;20120;-82
2024/03/03 11:32:32;;;;;;;3.20;1.85;;;14.90;59.80;;;;;;4973627;28;20129;-83
2024/03/03 11:34:59;;;;;;;3.95;2.10;;;14.80;59.80;;;;;;4986543;28;20057;-82
2024/03/03 11:37:27;;;;;;;2.10;1.80;;;14.90;59.70;;;;;;4967019;28;21686;-83
2024/03/03 11:39:56;;;;;;;2.50;1.77;;;14.80;59.70;;;;;;4969834;28;20146;-79
2024/03/03 11:42:31;;;;;;;6.20;2.40;;;14.80;59.90;;;;;;4982850;28;20039;-79
2024/03/03 11:44:58;;;;;;;4.15;2.20;;;14.80;60.00;;;;;;4986447;28;21009;-84
2024/03/03 11:47:29;;;;;;;4.55;2.00;;;14.80;60.00;;;;;;4966166;28;20039;-83
2024/03/03 11:49:55;;;;;;;3.28;2.10;;;14.80;60.20;;;;;;4957201;28;20080;-83
2024/03/03 11:52:41;;;;;;;4.60;2.13;;;14.80;60.30;;;;;;4987578;28;20039;-82
2024/03/03 11:55:15;;;;;;;3.47;1.80;;;14.80;60.50;;;;;;4968335;28;20093;-82
2024/03/03 11:57:44;;;;;;;2.38;1.83;;;14.80;60.70;;;;;;4955670;28;20031;-82
2024/03/03 12:00:16;;;;;;;3.22;1.90;;;14.80;60.40;;;;;;4984449;28;20137;-83
2024/03/03 12:02:46;;;;;;;4.30;2.42;;;14.80;60.20;;;;;;4955248;28;20580;-84
2024/03/03 12:05:16;;;;;;;5.65;2.35;;;14.80;60.30;;;;;;4982208;28;20049;-83
2024/03/03 12:07:48;;;;;;;3.17;2.40;;;14.80;60.10;;;;;;4973784;28;20108;-90
2024/03/03 12:10:38;;;;;;;3.08;1.88;;;14.80;60.20;;;;;;4958928;28;20059;-87
2024/03/03 12:13:05;;;;;;;4.05;1.95;;;14.80;60.50;;;;;;4967190;28;20414;-84
2024/03/03 12:15:31;;;;;;;3.92;2.10;;;14.80;60.50;;;;;;4966878;28;20551;-88
2024/03/03 12:18:01;;;;;;;3.22;2.15;;;14.70;60.50;;;;;;4969777;28;20047;-87
2024/03/03 12:20:28;;;;;;;3.95;2.30;;;14.70;60.20;;;;;;4982849;28;20513;-84
2024/03/03 12:22:55;;;;;;;3.42;1.98;;;14.70;60.00;;;;;;4984139;28;20050;-85
2024/03/03 12:25:23;;;;;;;3.45;2.40;;;14.70;59.80;;;;;;4954521;28;20038;-84
2024/03/03 12:27:54;;;;;;;2.38;2.03;;;14.70;59.40;;;;;;4981194;28;20034;-85
2024/03/03 12:30:32;;;;;;;2.63;2.22;;;14.70;59.40;;;;;;4969031;28;20038;-89
2024/03/03 12:33:05;;;;;;;2.67;1.88;;;14.70;59.10;;;;;;4963701;28;20045;-83
2024/03/03 12:35:34;;;;;;;4.55;2.30;;;14.70;58.70;;;;;;4972881;28;24890;-88
2024/03/03 12:38:04;;;;;;;4.38;2.20;;;14.60;58.50;;;;;;4989236;28;20117;-87
2024/03/03 12:40:30;;;;;;;2.72;2.20;;;14.60;58.60;;;;;;4957981;28;20038;-91
2024/03/03 12:42:57;;;;;;;2.92;2.17;;;14.60;58.70;;;;;;4967047;28;20518;-85
2024/03/03 12:45:24;;;;;;;5.20;2.10;;;14.60;58.80;;;;;;4970942;28;20049;-83
2024/03/03 12:47:50;;;;;;;2.53;1.80;;;14.60;58.60;;;;;;4983838;28;20167;-87
2024/03/03 12:50:18;;;;;;;3.00;1.98;;;14.60;58.80;;;;;;4939670;28;20031;-87